フォルタレザ の空港の天気 - METARとTAF

フォルタレザ/ピント・マーティンズ国際空港 ( SBFZ / FOR ) - ブラジル セアラー州フォルタレザ
飛行場実況気象(Metar)
観測時間08/14 17:00 BRT (08/14 20:00 UTC)
風向・風速東北東 7m/s
視程10km以上
天気現象
なし
気温27℃
湿度70%
気圧1010hPa
METARSBFZ 142000Z 07013KT CAVOK 27/21 Q1010
過去の天気等 Google飛行場航空写真 Wunderground天気予報

過去48時間のMETAR

飛行場予報(TAF)
発表時間: 8/14 12:00 BRT (8/14 15:00 UTC)
予報対象時間: 14日15時 BRT ~ 15日15時 BRT
風向・風速東南東 5m/s
視程8000m
少しの雲 雲底高度 610m
TAF SBFZ 141500Z 1418/1518 12010KT 8000 FEW020 TX28/1418Z TN20/1508Z RMK PDE